Flight Track Log - Related Links

Times and Time Zones

All times are in EDT time to prevent confusion due to time zone crossing. See the N6628Y flight status page for this flight to view local times or setup timezone preferences in your user account.

Time Position Orientation Groundspeed Altitude Reporting Facility
EDT Latitude Longitude Course Direction KTS MPH feet Rate Location/Type
Mon 12:48:45 AM 30.3444 -84.2933 125° Southeast 129 148 3,600  Level Jacksonville Center
Mon 12:49:45 AM 30.3300 -84.2692 123° Southeast 115 132 4,600 1,000 Climbing Jacksonville Center
Mon 12:50:45 AM 30.3136 -84.2400 141° Southeast 104 120 5,600 900 Climbing Jacksonville Center
Mon 12:51:45 AM 30.2931 -84.2206 129° Southeast 99 114 6,400 650 Climbing Jacksonville Center
Mon 12:52:45 AM 30.2725 -84.1914 115° Southeast 105 121 6,900 250 Climbing Jacksonville Center
Mon 12:53:45 AM 30.2581 -84.1550 128° Southeast 116 133 6,900 50 Level Jacksonville Center
Mon 12:54:45 AM 30.2356 -84.1211 139° Southeast 122 140 7,000  Climbing Jacksonville Center
Mon 12:55:45 AM 30.2086 -84.0944 132° Southeast 127 146 6,900 -50 Descending Jacksonville Center
Mon 12:56:45 AM 30.1839 -84.0628 128° Southeast 133 153 6,900 50 Level Jacksonville Center
Mon 12:57:45 AM 30.1611 -84.0289 130° Southeast 133 153 7,000 50 Climbing Jacksonville Center
Mon 12:58:45 AM 30.1386 -83.9975 128° Southeast 133 153 7,000  Level Jacksonville Center
Mon 12:59:45 AM 30.1158 -83.9636 132° Southeast 133 153 7,000  Level Jacksonville Center
Mon 01:00:45 AM 30.0911 -83.9319 128° Southeast 133 153 7,000  Level Jacksonville Center
Mon 01:01:45 AM 30.0683 -83.8983 132° Southeast 133 153 7,000 -50 Level Jacksonville Center
Mon 01:02:45 AM 30.0436 -83.8667 125° Southeast 133 153 6,900 -50 Descending Jacksonville Center
Mon 01:03:45 AM 30.0231 -83.8331 128° Southeast 133 153 6,900  Level Jacksonville Center
Mon 01:04:45 AM 30.0003 -83.7992 127° Southeast 133 153 6,900  Level Jacksonville Center
Mon 01:05:45 AM 29.9794 -83.7678 132° Southeast 133 153 6,900 50 Level Jacksonville Center
Mon 01:06:45 AM 29.9547 -83.7364 125° Southeast 133 153 7,000 50 Climbing Jacksonville Center
Mon 01:07:45 AM 29.9342 -83.7028 130° Southeast 133 153 7,000  Level Jacksonville Center
Mon 01:08:45 AM 29.9092 -83.6689 132° Southeast 133 153 7,000  Level Jacksonville Center
Mon 01:09:45 AM 29.8864 -83.6400 128° Southeast 133 153 7,000  Level Jacksonville Center
Mon 01:10:45 AM 29.8636 -83.6064 130° Southeast 133 153 7,000  Level Jacksonville Center
Mon 01:11:45 AM 29.8408 -83.5750 128° Southeast 133 153 7,000  Level Jacksonville Center
Mon 01:12:45 AM 29.8181 -83.5414 125° Southeast 133 153 7,000  Level Jacksonville Center
Mon 01:13:45 AM 29.7975 -83.5078 128° Southeast 133 153 7,000  Level Jacksonville Center
Mon 01:14:45 AM 29.7744 -83.4742 130° Southeast 133 153 7,000  Level Jacksonville Center
Mon 01:15:45 AM 29.7517 -83.4428 126° Southeast 133 153 7,000  Level Jacksonville Center
Mon 01:16:45 AM 29.7289 -83.4067 130° Southeast 133 153 7,000 -50 Level Jacksonville Center
Mon 01:17:45 AM 29.7061 -83.3756 131° Southeast 133 153 6,900  Descending Jacksonville Center
Mon 01:18:45 AM 29.6811 -83.3419 133° Southeast 133 153 7,000 50 Climbing Jacksonville Center
Mon 01:19:45 AM 29.6561 -83.3108 128° Southeast 133 153 7,000 -50 Level Jacksonville Center
Mon 01:20:45 AM 29.6333 -83.2772 127° Southeast 133 153 6,900 -65 Descending Jacksonville Center
Mon 01:21:18 AM 29.6208 -83.2581 128° Southeast 134 154 6,900  Level Jacksonville Center
Mon 01:22:19 AM 29.5981 -83.2247 126° Southeast 134 154 6,900  Level Jacksonville Center
Mon 01:23:19 AM 29.5750 -83.1886 130° Southeast 136 157 6,900  Level Jacksonville Center
Mon 01:24:20 AM 29.5522 -83.1575 131° Southeast 134 154 6,900  Level Jacksonville Center
Mon 01:25:20 AM 29.5272 -83.1242 131° Southeast 133 153 6,900  Level Jacksonville Center
Mon 01:26:21 AM 29.5022 -83.0906 131° Southeast 137 158 6,900  Level Jacksonville Center
Mon 01:27:22 AM 29.4753 -83.0547 128° Southeast 139 160 6,900 50 Level Jacksonville Center
Mon 01:28:22 AM 29.4522 -83.0214 128° Southeast 137 158 7,000  Climbing Jacksonville Center
Mon 01:29:23 AM 29.4292 -82.9881 130° Southeast 136 157 6,900 -50 Descending Jacksonville Center
Mon 01:30:23 AM 29.4042 -82.9544 128° Southeast 135 155 6,900  Level Jacksonville Center
Mon 01:31:24 AM 29.3814 -82.9211 133° Southeast 135 155 6,900  Level Jacksonville Center
Mon 01:32:25 AM 29.3564 -82.8903 133° Southeast 137 158 6,900  Level Jacksonville Center
Mon 01:33:25 AM 29.3292 -82.8569 129° Southeast 137 158 6,900  Level Jacksonville Center
Mon 01:34:26 AM 29.3042 -82.8211 131° Southeast 137 158 6,900  Level Jacksonville Center
Mon 01:35:26 AM 29.2789 -82.7878 124° Southeast 137 158 6,900  Level Jacksonville Center
Mon 01:36:27 AM 29.2581 -82.7522 131° Southeast 136 157 6,900  Level Jacksonville Center
Mon 01:37:28 AM 29.2331 -82.7189 131° Southeast 136 157 6,900  Level Jacksonville Center
Mon 01:38:28 AM 29.2100 -82.6881 131° Southeast 135 155 6,900  Level Jacksonville Center
Mon 01:39:23 AM 29.1869 -82.6572 129° Southeast 136 157 6,900  Level Jacksonville Center
Mon 01:40:23 AM 29.1619 -82.6214 131° Southeast 135 155 6,900  Level Jacksonville Center
Mon 01:41:24 AM 29.1389 -82.5906 131° Southeast 136 157 6,900  Level Jacksonville Center
Mon 01:42:25 AM 29.1136 -82.5575 127° Southeast 136 157 6,900  Level Jacksonville Center
Mon 01:43:25 AM 29.0906 -82.5219 129° Southeast 138 159 6,900  Level Jacksonville Center
Mon 01:44:26 AM 29.0656 -82.4864 131° Southeast 137 158 6,900  Level Jacksonville Center
Mon 01:45:26 AM 29.0403 -82.4531 126° Southeast 135 155 6,900  Level Jacksonville Center
Mon 01:46:27 AM 29.0194 -82.4200 131° Southeast 134 154 6,900  Level Jacksonville Center
Mon 01:47:28 AM 28.9942 -82.3869 129° Southeast 135 155 6,900  Level Jacksonville Center
Mon 01:48:28 AM 28.9711 -82.3539 131° Southeast 134 154 6,900  Level Jacksonville Center
Mon 01:49:29 AM 28.9458 -82.3208 129° Southeast 134 154 6,900  Level Jacksonville Center
Mon 01:55:49 AM 28.8000 -82.1167 127° Southeast 138 159 6,900  Level Orlando TRACON
Mon 01:56:49 AM 28.7667 -82.0667 120° Southeast 138 159 6,900  Level Orlando TRACON
Mon 01:57:49 AM 28.7500 -82.0333 139° Southeast 139 160 6,900  Level Orlando TRACON
Mon 01:58:49 AM 28.7167 -82.0000 120° Southeast 137 158 6,900  Level Orlando TRACON
Mon 01:59:49 AM 28.7000 -81.9667 156° South 135 155 6,900  Level Orlando TRACON
Mon 02:00:49 AM 28.6667 -81.9500 120° Southeast 136 157 6,900  Level Orlando TRACON
Mon 02:01:49 AM 28.6500 -81.9167 139° Southeast 134 154 6,900  Level Orlando TRACON
Mon 02:02:49 AM 28.6167 -81.8833 120° Southeast 134 154 6,900  Level Orlando TRACON
Mon 02:03:49 AM 28.6000 -81.8500 139° Southeast 134 154 6,900  Level Orlando TRACON
Mon 02:04:49 AM 28.5667 -81.8167 120° Southeast 135 155 6,900  Level Orlando TRACON
Mon 02:05:49 AM 28.5500 -81.7833 120° Southeast 133 153 6,900  Level Orlando TRACON
Mon 02:06:49 AM 28.5333 -81.7500 139° Southeast 132 152 6,900  Level Orlando TRACON
Mon 02:07:49 AM 28.5000 -81.7167 120° Southeast 132 152 6,900  Level Orlando TRACON
Mon 02:08:49 AM 28.4833 -81.6833 139° Southeast 133 153 6,900  Level Orlando TRACON
Mon 02:09:49 AM 28.4500 -81.6500 120° Southeast 131 151 6,900  Level Orlando TRACON
Mon 02:10:49 AM 28.4333 -81.6167 120° Southeast 130 150 6,900  Level Orlando TRACON
Mon 02:11:50 AM 28.4167 -81.5833 139° Southeast 131 151 6,900  Level Orlando TRACON
Mon 02:12:49 AM 28.3833 -81.5500 139° Southeast 130 150 6,900  Level Orlando TRACON
Mon 02:13:49 AM 28.3667 -81.5333 139° Southeast 131 151 6,900  Level Orlando TRACON
Mon 02:14:49 AM 28.3333 -81.5000 120° Southeast 127 146 6,900  Level Orlando TRACON
Mon 02:15:49 AM 28.3167 -81.4667 120° Southeast 128 147 6,900  Level Orlando TRACON
Mon 02:16:49 AM 28.3000 -81.4333 139° Southeast 130 150 6,900  Level Orlando TRACON
Mon 02:17:49 AM 28.2667 -81.4000 120° Southeast 129 148 6,900 50 Level Orlando TRACON
Mon 02:18:50 AM 28.2500 -81.3667 139° Southeast 131 151 7,000 -347 Climbing Orlando TRACON
Mon 02:19:50 AM 28.2167 -81.3333 120° Southeast 146 168 6,200 -800 Descending Orlando TRACON
Mon 02:20:50 AM 28.2000 -81.3000 136° Southeast 139 160 5,400 -790 Descending Orlando TRACON
Mon 02:22:37 AM 28.1522 -81.2483 123° Southeast 140 161 4,000 -503 Descending Miami Center
Mon 02:23:37 AM 28.1344 -81.2169 131° Southeast 134 154 4,000 -49 Level Miami Center
Mon 02:24:39 AM 28.1142 -81.1903 130° Southeast 123 142 3,900 -49 Descending Miami Center
Mon 02:25:40 AM 28.0942 -81.1636 130° Southeast 118 136 3,900  Level Miami Center
Mon 02:26:40 AM 28.0742 -81.1369 127° Southeast 118 136 3,900  Level Miami Center
Mon 02:27:38 AM 28.0561 -81.1103 133° Southeast 118 136 3,900 51 Level Miami Center
Mon 02:28:38 AM 28.0381 -81.0886 133° Southeast 118 136 4,000 100 Climbing Miami Center

Login

Don't have an account? Register now (free) for customized features, flight alerts, and more!